Time;durP1;ratioP1;P1;durP2;ratioP2;P2;SDS_P1;SDS_P2;PMS_P1;PMS_P2;Temp;Humidity;BMP_temperature;BMP_pressure;BME280_temperature;BME280_humidity;BME280_pressure;Samples;Min_cycle;Max_cycle;Signal;HPM_P1;HPM_P2
2022/11/17 00:02:15;;;;;;;;;;;18.10;97.00;;;;;;5072462;28;19909;-69
2022/11/17 00:04:43;;;;;;;;;;;18.20;97.10;;;;;;5073222;28;19938;-66
2022/11/17 00:07:10;;;;;;;;;;;18.10;97.60;;;;;;5073143;28;19908;-66
2022/11/17 00:09:36;;;;;;;;;;;17.90;98.00;;;;;;5072198;28;20351;-66
2022/11/17 00:14:48;;;;;;;;;;;18.20;97.10;;;;;;5072934;28;19954;-67
2022/11/17 00:17:14;;;;;;;;;;;18.30;97.40;;;;;;5073102;28;19946;-65
2022/11/17 00:22:25;;;;;;;;;;;18.50;96.80;;;;;;5072821;28;19970;-60
2022/11/17 00:24:52;;;;;;;;;;;18.30;97.40;;;;;;5072623;28;19944;-60
2022/11/17 00:27:19;;;;;;;;;;;18.60;96.40;;;;;;5072126;28;20388;-62
2022/11/17 00:29:45;;;;;;;;;;;18.40;96.00;;;;;;5072206;28;19917;-61
2022/11/17 00:34:58;;;;;;;;;;;18.30;96.90;;;;;;5073237;28;20317;-60
2022/11/17 00:37:25;;;;;;;;;;;18.20;95.90;;;;;;5072915;28;19967;-62
2022/11/17 00:39:52;;;;;;;;;;;18.40;96.10;;;;;;5072905;28;19909;-65
2022/11/17 00:42:18;;;;;;;;;;;18.80;96.20;;;;;;5072748;28;20335;-64
2022/11/17 00:44:45;;;;;;;;;;;18.80;95.50;;;;;;5072007;28;19917;-61
2022/11/17 00:47:12;;;;;;;;;;;19.00;95.10;;;;;;5072976;28;19947;-62
2022/11/17 00:49:38;;;;;;;;;;;19.40;95.70;;;;;;5072981;28;19909;-61
2022/11/17 00:52:05;;;;;;;;;;;19.50;95.20;;;;;;5072739;28;19934;-62
2022/11/17 00:54:32;;;;;;;;;;;20.00;94.20;;;;;;5072606;28;19919;-66
2022/11/17 00:56:58;;;;;;;;;;;19.90;94.70;;;;;;5071644;28;19963;-62
2022/11/17 00:59:25;;;;;;;;;;;20.50;94.00;;;;;;5071954;28;19920;-61
2022/11/17 01:01:52;;;;;;;;;;;20.90;93.40;;;;;;5071885;28;19943;-61
2022/11/17 01:04:18;;;;;;;;;;;21.20;92.30;;;;;;5072532;28;19908;-62
2022/11/17 01:06:46;;;;;;;;;;;21.10;92.10;;;;;;5072679;28;20014;-62
2022/11/17 01:09:13;;;;;;;;;;;21.30;92.10;;;;;;5072693;28;19916;-62
2022/11/17 01:11:40;;;;;;;;;;;21.10;91.40;;;;;;5072439;28;19914;-64
2022/11/17 01:14:09;;;;;;;;;;;21.30;90.80;;;;;;5072543;28;19913;-66
2022/11/17 01:16:36;;;;;;;;;;;21.00;91.80;;;;;;5071670;28;20351;-65
2022/11/17 01:19:03;;;;;;;;;;;20.90;92.10;;;;;;5071604;28;20334;-64
2022/11/17 01:21:30;;;;;;;;;;;21.20;91.60;;;;;;5072697;28;19908;-63
2022/11/17 01:23:59;;;;;;;;;;;20.80;91.60;;;;;;5075949;28;19948;-63
2022/11/17 01:26:27;;;;;;;;;;;20.20;92.30;;;;;;5075896;28;19912;-62
2022/11/17 01:28:54;;;;;;;;;;;20.00;93.40;;;;;;5075904;28;19909;-63
2022/11/17 01:31:25;;;;;;;;;;;20.40;93.90;;;;;;5075036;28;20333;-62
2022/11/17 01:33:52;;;;;;;;;;;20.40;93.90;;;;;;5075969;28;19956;-63
2022/11/17 01:36:20;;;;;;;;;;;20.30;94.60;;;;;;5075999;28;19923;-62
2022/11/17 01:38:47;;;;;;;;;;;19.80;94.20;;;;;;5075742;28;19913;-69
2022/11/17 01:41:15;;;;;;;;;;;19.70;93.50;;;;;;5075705;28;20323;-62
2022/11/17 01:43:43;;;;;;;;;;;19.50;94.00;;;;;;5075884;28;19909;-62
2022/11/17 01:46:24;;;;;;;;;;;19.20;93.60;;;;;;5074904;28;19954;-62
2022/11/17 01:48:51;;;;;;;;;;;19.20;94.50;;;;;;5075382;28;20359;-62
2022/11/17 01:51:18;;;;;;;;;;;19.30;93.90;;;;;;5075917;28;20271;-62
2022/11/17 01:53:46;;;;;;;;;;;19.30;94.10;;;;;;5075626;28;19916;-64
2022/11/17 01:56:16;;;;;;;;;;;19.40;93.60;;;;;;5074913;28;19931;-62
2022/11/17 01:58:45;;;;;;;;;;;19.50;94.00;;;;;;5075291;28;19908;-65
2022/11/17 02:01:12;;;;;;;;;;;19.50;93.90;;;;;;5074673;28;19912;-62
2022/11/17 02:03:39;;;;;;;;;;;19.50;94.40;;;;;;5074764;28;19966;-63
2022/11/17 02:06:08;;;;;;;;;;;19.40;94.40;;;;;;5075441;28;19919;-62
2022/11/17 02:08:36;;;;;;;;;;;19.40;93.90;;;;;;5075468;28;19915;-62
2022/11/17 02:11:04;;;;;;;;;;;19.60;94.20;;;;;;5075046;28;19908;-62
2022/11/17 02:13:31;;;;;;;;;;;19.80;93.40;;;;;;5075292;28;20412;-62
2022/11/17 02:15:57;;;;;;;;;;;19.70;94.20;;;;;;5074416;28;20372;-62
2022/11/17 02:18:24;;;;;;;;;;;19.40;94.20;;;;;;5075275;28;20351;-63
2022/11/17 02:20:59;;;;;;;;;;;19.60;95.00;;;;;;5075002;28;19908;-62
2022/11/17 02:23:44;;;;;;;;;;;19.70;95.00;;;;;;5073962;28;19916;-62
2022/11/17 02:26:29;;;;;;;;;;;19.70;94.90;;;;;;5075011;28;19909;-71
2022/11/17 02:29:08;;;;;;;;;;;19.30;94.70;;;;;;5074860;28;19919;-70
2022/11/17 02:31:37;;;;;;;;;;;19.50;94.50;;;;;;5073982;28;20003;-71
2022/11/17 02:34:20;;;;;;;;;;;19.30;94.70;;;;;;5073610;28;19927;-64
2022/11/17 02:36:54;;;;;;;;;;;19.40;95.30;;;;;;5074391;28;19958;-62
2022/11/17 02:39:29;;;;;;;;;;;19.20;95.10;;;;;;5074705;28;20286;-62
2022/11/17 02:42:03;;;;;;;;;;;19.30;94.20;;;;;;5074526;28;19916;-62
2022/11/17 02:44:36;;;;;;;;;;;19.20;94.50;;;;;;5073686;28;19913;-63
2022/11/17 02:47:06;;;;;;;;;;;19.40;94.60;;;;;;5074405;28;19961;-63
2022/11/17 02:49:38;;;;;;;;;;;19.40;95.00;;;;;;5074674;28;19944;-61
2022/11/17 02:52:05;;;;;;;;;;;19.30;95.10;;;;;;5074434;28;20335;-62
2022/11/17 02:54:32;;;;;;;;;;;19.30;95.80;;;;;;5074173;28;19909;-65
2022/11/17 02:56:59;;;;;;;;;;;19.00;96.30;;;;;;5074095;28;19916;-63
2022/11/17 02:59:32;;;;;;;;;;;19.00;95.90;;;;;;5073369;28;19923;-62
2022/11/17 03:02:05;;;;;;;;;;;19.10;96.20;;;;;;5073214;28;20359;-72
2022/11/17 03:04:38;;;;;;;;;;;19.00;96.30;;;;;;5074373;28;19908;-62
2022/11/17 03:07:23;;;;;;;;;;;19.20;95.80;;;;;;5074036;28;20004;-64
2022/11/17 03:10:01;;;;;;;;;;;19.20;96.00;;;;;;5074055;28;19991;-63
2022/11/17 03:12:47;;;;;;;;;;;19.10;95.70;;;;;;5074134;28;19918;-65
2022/11/17 03:15:14;;;;;;;;;;;19.00;96.20;;;;;;5059514;28;19935;-63
2022/11/17 03:17:48;;;;;;;;;;;19.00;95.50;;;;;;5074048;28;20392;-66
2022/11/17 03:20:20;;;;;;;;;;;18.90;95.20;;;;;;5074060;28;19916;-64
2022/11/17 03:22:59;;;;;;;;;;;19.20;95.60;;;;;;5073752;28;19955;-62
2022/11/17 03:25:27;;;;;;;;;;;19.50;95.30;;;;;;5073676;28;19958;-63
2022/11/17 03:27:57;;;;;;;;;;;19.30;95.60;;;;;;5073731;28;19915;-62
2022/11/17 03:30:24;;;;;;;;;;;19.00;95.80;;;;;;5073110;28;20346;-68
2022/11/17 03:32:57;;;;;;;;;;;18.90;96.10;;;;;;5073465;28;19916;-69
2022/11/17 03:35:27;;;;;;;;;;;19.40;95.30;;;;;;5073816;28;19990;-71
2022/11/17 03:37:55;;;;;;;;;;;19.30;95.70;;;;;;5073760;28;19908;-71
2022/11/17 03:40:24;;;;;;;;;;;19.10;95.80;;;;;;5073483;28;19909;-70
2022/11/17 03:42:52;;;;;;;;;;;19.30;95.50;;;;;;5073472;28;20016;-66
2022/11/17 03:45:24;;;;;;;;;;;19.20;95.70;;;;;;5072259;28;19912;-63
2022/11/17 03:47:56;;;;;;;;;;;19.20;95.50;;;;;;5073160;28;19909;-63
2022/11/17 03:50:35;;;;;;;;;;;19.20;95.90;;;;;;5073494;28;19909;-62
2022/11/17 03:53:02;;;;;;;;;;;19.30;96.20;;;;;;5073263;28;19955;-68
2022/11/17 03:55:44;;;;;;;;;;;19.30;96.20;;;;;;5073128;28;20291;-64
2022/11/17 03:58:14;;;;;;;;;;;19.50;96.20;;;;;;5072513;28;19913;-66
2022/11/17 04:00:41;;;;;;;;;;;19.40;96.60;;;;;;5073172;28;19908;-63
2022/11/17 04:03:08;;;;;;;;;;;19.30;97.00;;;;;;5072999;28;20057;-64
2022/11/17 04:05:35;;;;;;;;;;;19.50;96.40;;;;;;5072439;28;19916;-62
2022/11/17 04:08:01;;;;;;;;;;;19.20;96.70;;;;;;5073153;28;19915;-65
2022/11/17 04:10:28;;;;;;;;;;;19.20;96.50;;;;;;5072942;28;19908;-62
2022/11/17 04:15:57;;;;;;;;;;;19.40;96.30;;;;;;5073587;28;20321;-63
2022/11/17 04:18:25;;;;;;;;;;;19.20;96.50;;;;;;5072961;28;19958;-65
2022/11/17 04:20:53;;;;;;;;;;;19.00;96.90;;;;;;5065702;28;19912;-64
2022/11/17 04:23:20;;;;;;;;;;;19.10;96.20;;;;;;5062972;28;19917;-62
2022/11/17 04:28:36;;;;;;;;;;;19.00;96.20;;;;;;5073508;28;20417;-64
2022/11/17 04:31:06;;;;;;;;;;;19.10;96.50;;;;;;5072745;28;19914;-67
2022/11/17 04:33:32;;;;;;;;;;;19.10;96.90;;;;;;5072930;28;20316;-63
2022/11/17 04:35:59;;;;;;;;;;;19.00;96.90;;;;;;5072193;28;19912;-68
2022/11/17 04:38:26;;;;;;;;;;;19.00;95.60;;;;;;5072918;28;19916;-65
2022/11/17 04:43:40;;;;;;;;;;;18.70;96.80;;;;;;5073312;28;19954;-71
2022/11/17 04:46:07;;;;;;;;;;;18.60;95.90;;;;;;5073023;28;19918;-72
2022/11/17 04:48:33;;;;;;;;;;;18.50;96.20;;;;;;5072953;28;19909;-70
2022/11/17 04:51:00;;;;;;;;;;;18.70;95.90;;;;;;5072104;28;19914;-72
2022/11/17 04:53:29;;;;;;;;;;;18.70;95.60;;;;;;5072043;28;20384;-73
2022/11/17 04:55:59;;;;;;;;;;;18.80;95.40;;;;;;5072580;28;19967;-72
2022/11/17 04:58:33;;;;;;;;;;;18.80;95.10;;;;;;5075822;28;19916;-69
2022/11/17 05:01:11;;;;;;;;;;;18.50;95.70;;;;;;5074592;28;19930;-71
2022/11/17 05:03:48;;;;;;;;;;;18.70;95.40;;;;;;5056517;28;19908;-71
2022/11/17 05:06:16;;;;;;;;;;;18.40;95.30;;;;;;5070890;28;19966;-71
2022/11/17 05:08:43;;;;;;;;;;;18.50;95.70;;;;;;5076379;28;19908;-72
2022/11/17 05:13:55;;;;;;;;;;;18.60;95.60;;;;;;5076278;28;20437;-70
2022/11/17 05:19:09;;;;;;;;;;;18.40;96.10;;;;;;5075392;28;19915;-72
2022/11/17 05:21:36;;;;;;;;;;;18.40;96.20;;;;;;5075615;28;19916;-72
2022/11/17 05:24:03;;;;;;;;;;;18.60;96.30;;;;;;5075358;28;19918;-72
2022/11/17 05:26:31;;;;;;;;;;;18.40;96.70;;;;;;5075912;28;19908;-72
2022/11/17 05:28:58;;;;;;;;;;;18.30;97.00;;;;;;5075764;28;19908;-72
2022/11/17 05:31:25;;;;;;;;;;;18.50;97.40;;;;;;5075994;28;19940;-73
2022/11/17 05:33:52;;;;;;;;;;;18.50;96.90;;;;;;5075210;28;19917;-68
2022/11/17 05:36:19;;;;;;;;;;;18.50;96.80;;;;;;5055554;28;19909;-72
2022/11/17 05:38:46;;;;;;;;;;;18.60;96.70;;;;;;5055697;28;19912;-71
2022/11/17 05:41:13;;;;;;;;;;;18.40;97.00;;;;;;5055629;28;19912;-72
2022/11/17 05:43:40;;;;;;;;;;;18.00;97.60;;;;;;5055919;28;19935;-72
2022/11/17 05:46:07;;;;;;;;;;;17.90;97.80;;;;;;5055680;28;20356;-73
2022/11/17 05:48:34;;;;;;;;;;;17.90;98.10;;;;;;5055338;28;19916;-64
2022/11/17 05:51:01;;;;;;;;;;;17.90;98.70;;;;;;5072766;28;20495;-72
2022/11/17 05:53:28;;;;;;;;;;;18.00;98.10;;;;;;5073514;28;19916;-72
2022/11/17 05:56:21;;;;;;;;;;;17.90;98.50;;;;;;5073113;28;19927;-72
2022/11/17 05:58:51;;;;;;;;;;;17.90;98.70;;;;;;5042197;28;19965;-69
2022/11/17 06:01:19;;;;;;;;;;;17.90;98.20;;;;;;5073463;28;19913;-72
2022/11/17 06:03:48;;;;;;;;;;;18.10;98.50;;;;;;5072266;28;19917;-72
2022/11/17 06:06:15;;;;;;;;;;;18.20;98.40;;;;;;5072770;28;19913;-72
2022/11/17 06:08:41;;;;;;;;;;;18.10;98.00;;;;;;5072519;28;19913;-72
2022/11/17 06:11:08;;;;;;;;;;;18.20;98.50;;;;;;5073099;28;19939;-71
2022/11/17 06:13:35;;;;;;;;;;;18.10;98.30;;;;;;5073249;28;19916;-71
2022/11/17 06:16:03;;;;;;;;;;;18.20;98.40;;;;;;5073268;28;19909;-72
2022/11/17 06:18:37;;;;;;;;;;;18.00;98.80;;;;;;5071708;28;19916;-72
2022/11/17 06:21:04;;;;;;;;;;;18.00;98.90;;;;;;5054267;28;20018;-73
2022/11/17 06:23:32;;;;;;;;;;;18.10;98.80;;;;;;5073156;28;20337;-70
2022/11/17 06:26:02;;;;;;;;;;;18.30;99.30;;;;;;5072852;28;19962;-63
2022/11/17 06:28:29;;;;;;;;;;;18.50;99.40;;;;;;5072865;28;19908;-63
2022/11/17 06:30:56;;;;;;;;;;;18.50;99.40;;;;;;5072345;28;19913;-61
2022/11/17 06:33:24;;;;;;;;;;;18.40;99.10;;;;;;5071952;28;19965;-61
2022/11/17 06:35:51;;;;;;;;;;;18.20;99.40;;;;;;5071371;28;19917;-61
2022/11/17 06:38:18;;;;;;;;;;;18.10;99.30;;;;;;5072907;28;19916;-65
2022/11/17 06:40:45;;;;;;;;;;;18.00;98.90;;;;;;5072254;28;20322;-64
2022/11/17 06:43:12;;;;;;;;;;;17.90;99.50;;;;;;5072192;28;19909;-62
2022/11/17 06:45:42;;;;;;;;;;;17.90;99.40;;;;;;5072553;28;19908;-61
2022/11/17 06:48:10;;;;;;;;;;;17.90;99.30;;;;;;5071734;28;19917;-61
2022/11/17 06:50:36;;;;;;;;;;;17.90;99.50;;;;;;5071798;28;19913;-65
2022/11/17 06:53:05;;;;;;;;;;;17.80;99.80;;;;;;5072292;28;20019;-62
2022/11/17 06:55:33;;;;;;;;;;;17.60;99.40;;;;;;5072080;28;19982;-64
2022/11/17 06:58:00;;;;;;;;;;;17.70;98.60;;;;;;5071685;28;19908;-66
2022/11/17 07:00:28;;;;;;;;;;;17.50;99.70;;;;;;5072106;28;20054;-62
2022/11/17 07:03:05;;;;;;;;;;;17.60;99.50;;;;;;5071134;28;19920;-63
2022/11/17 07:05:32;;;;;;;;;;;17.50;99.30;;;;;;5071080;28;19916;-64
2022/11/17 07:08:00;;;;;;;;;;;17.50;99.60;;;;;;5072024;28;19908;-69
2022/11/17 07:10:30;;;;;;;;;;;17.60;99.30;;;;;;5071674;28;20410;-71
2022/11/17 07:12:57;;;;;;;;;;;17.50;99.50;;;;;;5071712;28;19916;-63
2022/11/17 07:15:25;;;;;;;;;;;17.50;99.20;;;;;;5071882;28;19932;-62
2022/11/17 07:17:52;;;;;;;;;;;17.60;99.60;;;;;;5070978;28;19912;-62
2022/11/17 07:20:19;;;;;;;;;;;17.70;99.10;;;;;;5071462;28;19909;-65
2022/11/17 07:22:47;;;;;;;;;;;17.60;99.10;;;;;;5071119;28;19995;-61
2022/11/17 07:25:14;;;;;;;;;;;17.50;99.50;;;;;;5071626;28;19912;-66
2022/11/17 07:27:41;;;;;;;;;;;17.40;99.90;;;;;;5071567;28;19908;-65
2022/11/17 07:30:08;;;;;;;;;;;17.40;99.50;;;;;;5071667;28;20007;-71
2022/11/17 07:32:35;;;;;;;;;;;17.50;99.80;;;;;;5070225;28;19916;-63
2022/11/17 07:35:04;;;;;;;;;;;17.50;99.90;;;;;;5069925;28;20278;-70
2022/11/17 07:37:32;;;;;;;;;;;17.50;99.90;;;;;;5071434;28;20619;-63
2022/11/17 07:39:59;;;;;;;;;;;17.40;99.90;;;;;;5071317;28;19948;-65
2022/11/17 07:42:26;;;;;;;;;;;17.40;99.90;;;;;;5071491;28;19970;-61
2022/11/17 07:44:53;;;;;;;;;;;17.40;99.90;;;;;;5071157;28;19912;-62
2022/11/17 07:47:20;;;;;;;;;;;17.50;99.90;;;;;;5068820;28;19951;-61
2022/11/17 07:49:46;;;;;;;;;;;17.40;99.90;;;;;;5070398;28;19962;-62
2022/11/17 07:52:13;;;;;;;;;;;17.30;99.90;;;;;;5071215;28;19927;-61
2022/11/17 07:54:40;;;;;;;;;;;17.30;99.90;;;;;;5070849;28;19919;-67
2022/11/17 07:57:06;;;;;;;;;;;17.30;99.90;;;;;;5071317;28;19917;-66
2022/11/17 07:59:33;;;;;;;;;;;17.30;99.90;;;;;;5071231;28;19954;-62
2022/11/17 08:01:59;;;;;;;;;;;17.20;99.90;;;;;;5069884;28;19912;-63
2022/11/17 08:04:26;;;;;;;;;;;17.00;99.90;;;;;;5070749;28;19916;-66
2022/11/17 08:06:53;;;;;;;;;;;17.00;99.90;;;;;;5070784;28;19912;-64
2022/11/17 08:09:19;;;;;;;;;;;17.00;99.90;;;;;;5070719;28;19920;-62
2022/11/17 08:11:46;;;;;;;;;;;16.90;99.90;;;;;;5065740;28;20012;-65
2022/11/17 08:14:13;;;;;;;;;;;16.80;99.90;;;;;;5064756;28;20001;-69
2022/11/17 08:16:40;;;;;;;;;;;16.80;99.90;;;;;;5063979;28;20294;-64
2022/11/17 08:19:06;;;;;;;;;;;16.80;99.90;;;;;;5063969;28;20672;-69
2022/11/17 08:21:35;;;;;;;;;;;16.70;99.90;;;;;;5064579;28;19919;-71
2022/11/17 08:24:02;;;;;;;;;;;16.70;99.90;;;;;;5063896;28;19912;-70
2022/11/17 08:26:28;;;;;;;;;;;16.80;99.90;;;;;;5064668;28;19919;-67
2022/11/17 08:28:57;;;;;;;;;;;16.70;99.90;;;;;;5064495;28;19916;-65
2022/11/17 08:31:23;;;;;;;;;;;16.70;99.90;;;;;;5063038;28;19917;-71
2022/11/17 08:33:50;;;;;;;;;;;16.70;99.90;;;;;;5067028;28;20395;-68
2022/11/17 08:36:17;;;;;;;;;;;16.70;99.90;;;;;;5067933;28;20319;-67
2022/11/17 08:38:43;;;;;;;;;;;16.60;99.90;;;;;;5067886;28;19920;-69
2022/11/17 08:41:10;;;;;;;;;;;16.70;99.90;;;;;;5068736;28;19916;-68
2022/11/17 08:43:36;;;;;;;;;;;16.70;99.90;;;;;;5068685;28;20019;-65
2022/11/17 08:46:03;;;;;;;;;;;16.60;99.90;;;;;;5067908;28;19943;-66
2022/11/17 08:48:31;;;;;;;;;;;16.60;99.90;;;;;;5067190;28;19916;-64
2022/11/17 08:50:58;;;;;;;;;;;16.60;99.90;;;;;;5067392;28;19913;-61
2022/11/17 08:53:24;;;;;;;;;;;16.60;99.90;;;;;;5048639;28;19920;-70
2022/11/17 08:55:51;;;;;;;;;;;16.60;99.90;;;;;;5047800;28;19956;-68
2022/11/17 08:58:21;;;;;;;;;;;16.60;99.90;;;;;;5047899;28;19920;-71
2022/11/17 09:00:47;;;;;;;;;;;16.60;99.90;;;;;;5053016;28;19967;-69
2022/11/17 09:03:14;;;;;;;;;;;16.60;99.90;;;;;;5067680;28;19928;-65
2022/11/17 09:05:48;;;;;;;;;;;16.60;99.90;;;;;;5067751;28;19919;-67
2022/11/17 09:08:15;;;;;;;;;;;16.50;99.90;;;;;;5067695;28;19912;-68
2022/11/17 09:10:41;;;;;;;;;;;16.50;99.90;;;;;;5067841;28;20472;-68
2022/11/17 09:13:08;;;;;;;;;;;16.40;99.90;;;;;;5067707;28;19921;-61
2022/11/17 09:15:35;;;;;;;;;;;16.40;99.90;;;;;;5066835;28;20047;-65
2022/11/17 09:18:02;;;;;;;;;;;16.40;99.90;;;;;;5066512;28;19912;-64
2022/11/17 09:20:30;;;;;;;;;;;16.40;99.90;;;;;;5067562;28;20556;-69
2022/11/17 09:23:01;;;;;;;;;;;16.40;99.90;;;;;;5067070;28;19912;-62
2022/11/17 09:25:28;;;;;;;;;;;16.30;99.90;;;;;;5067448;28;20019;-62
2022/11/17 09:27:54;;;;;;;;;;;16.20;99.90;;;;;;5067560;28;19916;-67
2022/11/17 09:30:22;;;;;;;;;;;16.30;99.90;;;;;;5066338;28;20678;-62
2022/11/17 09:32:51;;;;;;;;;;;16.20;99.90;;;;;;5066969;28;19970;-63
2022/11/17 09:35:18;;;;;;;;;;;16.20;99.90;;;;;;5067284;28;19912;-63
2022/11/17 09:37:45;;;;;;;;;;;16.30;99.90;;;;;;5073530;28;19975;-64
2022/11/17 09:40:15;;;;;;;;;;;16.20;99.90;;;;;;5066496;28;19999;-67
2022/11/17 09:42:42;;;;;;;;;;;16.20;99.90;;;;;;5067295;28;20007;-61
2022/11/17 09:45:21;;;;;;;;;;;16.30;99.90;;;;;;5064775;28;20293;-65
2022/11/17 09:48:04;;;;;;;;;;;16.20;99.90;;;;;;5065827;28;19917;-66
2022/11/17 09:50:36;;;;;;;;;;;16.20;99.90;;;;;;5067262;28;20400;-74
2022/11/17 09:53:09;;;;;;;;;;;16.20;99.90;;;;;;5066579;28;20014;-66
2022/11/17 09:55:40;;;;;;;;;;;16.20;99.90;;;;;;5066894;28;20074;-63
2022/11/17 09:58:07;;;;;;;;;;;16.20;99.90;;;;;;5067392;28;20378;-70
2022/11/17 10:00:34;;;;;;;;;;;16.20;99.90;;;;;;5065921;28;19912;-67
2022/11/17 10:03:01;;;;;;;;;;;16.20;99.90;;;;;;5066723;28;19961;-61
2022/11/17 10:05:32;;;;;;;;;;;16.10;99.90;;;;;;5066484;28;19912;-69
2022/11/17 10:08:05;;;;;;;;;;;16.10;99.90;;;;;;5066691;28;20426;-63
2022/11/17 10:10:38;;;;;;;;;;;16.20;99.90;;;;;;5066804;28;19919;-65
2022/11/17 10:13:10;;;;;;;;;;;16.10;99.90;;;;;;5066416;28;20492;-71
2022/11/17 10:15:47;;;;;;;;;;;16.10;99.90;;;;;;5065940;28;20639;-70
2022/11/17 10:18:15;;;;;;;;;;;16.00;99.90;;;;;;5066351;28;19916;-63
2022/11/17 10:20:42;;;;;;;;;;;16.00;99.90;;;;;;5066625;28;19989;-62
2022/11/17 10:23:13;;;;;;;;;;;16.00;99.90;;;;;;5066102;28;19999;-71
2022/11/17 10:25:42;;;;;;;;;;;16.00;99.90;;;;;;5066682;28;20048;-66
2022/11/17 10:28:22;;;;;;;;;;;16.00;99.90;;;;;;5066257;28;20579;-65
2022/11/17 10:30:53;;;;;;;;;;;16.00;99.90;;;;;;5065095;28;20476;-70
2022/11/17 10:33:31;;;;;;;;;;;15.90;99.90;;;;;;5066237;28;20738;-71
2022/11/17 10:35:58;;;;;;;;;;;16.00;99.90;;;;;;5066162;28;19913;-71
2022/11/17 10:38:27;;;;;;;;;;;15.90;99.90;;;;;;5065887;28;19913;-71
2022/11/17 10:40:56;;;;;;;;;;;15.90;99.90;;;;;;5065798;28;19912;-72
2022/11/17 10:43:31;;;;;;;;;;;15.90;99.90;;;;;;5065099;28;20294;-71
2022/11/17 10:46:00;;;;;;;;;;;16.00;99.90;;;;;;5065716;28;19917;-71
2022/11/17 10:48:26;;;;;;;;;;;15.90;99.90;;;;;;5066050;28;19954;-71
2022/11/17 10:51:07;;;;;;;;;;;15.90;99.90;;;;;;5065626;28;20434;-71
2022/11/17 10:53:35;;;;;;;;;;;15.90;99.90;;;;;;5065829;28;20453;-71
2022/11/17 10:56:04;;;;;;;;;;;15.80;99.90;;;;;;5065435;28;19925;-71
2022/11/17 10:58:32;;;;;;;;;;;15.90;99.90;;;;;;5064132;28;20391;-72
2022/11/17 11:01:00;;;;;;;;;;;15.90;99.90;;;;;;5064982;28;19916;-67
2022/11/17 11:03:31;;;;;;;;;;;15.90;99.90;;;;;;5065862;28;19982;-70
2022/11/17 11:05:59;;;;;;;;;;;15.90;99.90;;;;;;5065846;28;19919;-69
2022/11/17 11:08:32;;;;;;;;;;;15.90;99.90;;;;;;5065504;28;19913;-70
2022/11/17 11:11:00;;;;;;;;;;;15.90;99.90;;;;;;5065055;28;20011;-69
2022/11/17 11:13:39;;;;;;;;;;;15.80;99.90;;;;;;5064670;28;19957;-72
2022/11/17 11:16:05;;;;;;;;;;;15.90;99.90;;;;;;5064075;28;19916;-70
2022/11/17 11:18:32;;;;;;;;;;;15.90;99.90;;;;;;5065339;28;20015;-72
2022/11/17 11:21:08;;;;;;;;;;;15.90;99.90;;;;;;5065141;28;19921;-71
2022/11/17 11:23:35;;;;;;;;;;;15.90;99.90;;;;;;5064986;28;20371;-71
2022/11/17 11:26:08;;;;;;;;;;;15.80;99.90;;;;;;5065166;28;20276;-68
2022/11/17 11:28:44;;;;;;;;;;;15.90;99.90;;;;;;5064531;28;19916;-73
2022/11/17 11:31:25;;;;;;;;;;;15.90;99.90;;;;;;5064783;28;19916;-71
2022/11/17 11:34:01;;;;;;;;;;;15.90;99.90;;;;;;5065174;28;19928;-70
2022/11/17 11:36:43;;;;;;;;;;;15.90;99.90;;;;;;5064931;28;20422;-72
2022/11/17 11:39:10;;;;;;;;;;;15.90;99.90;;;;;;5065089;28;20153;-71
2022/11/17 11:41:43;;;;;;;;;;;16.00;99.90;;;;;;5065185;28;19923;-70
2022/11/17 11:44:15;;;;;;;;;;;16.00;99.90;;;;;;5064122;28;19990;-72
2022/11/17 11:46:49;;;;;;;;;;;16.10;99.90;;;;;;5065133;28;19920;-71
2022/11/17 11:49:15;;;;;;;;;;;16.00;99.90;;;;;;5064767;28;19913;-68
2022/11/17 11:51:42;;;;;;;;;;;16.00;99.90;;;;;;5064810;28;19987;-71
2022/11/17 11:54:13;;;;;;;;;;;16.10;99.90;;;;;;5064826;28;19921;-68
2022/11/17 11:56:43;;;;;;;;;;;16.00;99.90;;;;;;5064768;28;20591;-71
2022/11/17 11:59:14;;;;;;;;;;;16.00;99.90;;;;;;5063906;28;19994;-67
2022/11/17 12:02:13;;;;;;;;;;;16.10;99.90;;;;;;5064280;28;19916;-62
2022/11/17 12:04:44;;;;;;;;;;;16.00;99.90;;;;;;5020094;28;19963;-68
2022/11/17 12:07:25;;;;;;;;;;;16.00;99.90;;;;;;5063975;28;20418;-69
2022/11/17 12:10:23;;;;;;;;;;;16.00;99.90;;;;;;5064738;28;19913;-62
2022/11/17 12:12:50;;;;;;;;;;;16.00;99.90;;;;;;5018668;28;19931;-65
2022/11/17 12:15:22;;;;;;;;;;;16.10;99.90;;;;;;5064134;28;19960;-66
2022/11/17 12:17:52;;;;;;;;;;;16.10;99.90;;;;;;5064722;28;20441;-67
2022/11/17 12:20:31;;;;;;;;;;;16.00;99.90;;;;;;5064374;28;19920;-68
2022/11/17 12:23:01;;;;;;;;;;;16.00;99.90;;;;;;5073018;28;19915;-67
2022/11/17 12:25:29;;;;;;;;;;;16.00;99.90;;;;;;5073082;28;19908;-67
2022/11/17 12:27:56;;;;;;;;;;;16.00;99.90;;;;;;5073250;28;19916;-71
2022/11/17 12:30:39;;;;;;;;;;;16.00;99.90;;;;;;5073135;28;19930;-72
2022/11/17 12:33:07;;;;;;;;;;;16.00;99.90;;;;;;5072156;28;19921;-71
2022/11/17 12:35:35;;;;;;;;;;;16.00;99.90;;;;;;5072871;28;19913;-72
2022/11/17 12:38:18;;;;;;;;;;;16.00;99.90;;;;;;5072832;28;20003;-72
2022/11/17 12:40:46;;;;;;;;;;;16.00;99.90;;;;;;5073133;28;19909;-72
2022/11/17 12:43:18;;;;;;;;;;;16.00;99.90;;;;;;5073132;28;19909;-72
2022/11/17 12:46:00;;;;;;;;;;;16.00;99.90;;;;;;5073001;28;19908;-72
2022/11/17 12:48:33;;;;;;;;;;;16.00;99.90;;;;;;5071500;28;19917;-72
2022/11/17 12:51:05;;;;;;;;;;;16.10;99.90;;;;;;5071925;28;19920;-72
2022/11/17 12:53:31;;;;;;;;;;;16.00;99.90;;;;;;5072803;28;19917;-72
2022/11/17 12:56:16;;;;;;;;;;;16.00;99.90;;;;;;5072805;28;19960;-72
2022/11/17 12:58:52;;;;;;;;;;;15.90;99.90;;;;;;5073007;28;19916;-72
2022/11/17 13:01:21;;;;;;;;;;;15.90;99.90;;;;;;5072935;28;19913;-72
2022/11/17 13:03:58;;;;;;;;;;;15.90;99.90;;;;;;5072221;28;19912;-72
2022/11/17 13:06:25;;;;;;;;;;;15.90;99.90;;;;;;5072093;28;20007;-71
2022/11/17 13:08:56;;;;;;;;;;;15.90;99.90;;;;;;5072540;28;20354;-70
2022/11/17 13:11:23;;;;;;;;;;;16.00;99.90;;;;;;5072789;28;20007;-71
2022/11/17 13:13:50;;;;;;;;;;;15.90;99.90;;;;;;5072759;28;19924;-72
2022/11/17 13:16:20;;;;;;;;;;;15.90;99.90;;;;;;5072654;28;19912;-72
2022/11/17 13:18:48;;;;;;;;;;;15.90;99.90;;;;;;5073272;28;19963;-72
2022/11/17 13:21:28;;;;;;;;;;;15.90;99.90;;;;;;5076438;28;19908;-72
2022/11/17 13:23:56;;;;;;;;;;;15.90;99.90;;;;;;5076309;28;19916;-72
2022/11/17 13:26:23;;;;;;;;;;;15.90;99.90;;;;;;5076333;28;19950;-72
2022/11/17 13:29:06;;;;;;;;;;;15.80;99.90;;;;;;5076109;28;19908;-72
2022/11/17 13:31:33;;;;;;;;;;;15.80;99.90;;;;;;5076241;28;20333;-72
2022/11/17 13:34:00;;;;;;;;;;;15.80;99.90;;;;;;5075395;28;20391;-71
2022/11/17 13:36:27;;;;;;;;;;;15.70;99.90;;;;;;5075272;28;20007;-71
2022/11/17 13:38:56;;;;;;;;;;;15.60;99.90;;;;;;5075956;28;19909;-72
2022/11/17 13:41:24;;;;;;;;;;;15.60;99.90;;;;;;5076048;28;19913;-72
2022/11/17 13:43:52;;;;;;;;;;;15.50;99.90;;;;;;5076043;28;19916;-71
2022/11/17 13:46:18;;;;;;;;;;;15.50;99.90;;;;;;5075949;28;19943;-71
2022/11/17 13:48:46;;;;;;;;;;;15.50;99.90;;;;;;5074837;28;19965;-69
2022/11/17 13:51:26;;;;;;;;;;;15.50;99.90;;;;;;5075890;28;20362;-72
2022/11/17 13:53:53;;;;;;;;;;;15.50;99.90;;;;;;5075813;28;20429;-73
2022/11/17 13:56:31;;;;;;;;;;;15.50;99.90;;;;;;5075699;28;19944;-72
2022/11/17 13:58:58;;;;;;;;;;;15.50;99.90;;;;;;5075518;28;19947;-72
2022/11/17 14:01:31;;;;;;;;;;;15.50;99.90;;;;;;5075687;28;19915;-72
2022/11/17 14:04:13;;;;;;;;;;;15.40;99.90;;;;;;5074883;28;20053;-72
2022/11/17 14:06:59;;;;;;;;;;;15.40;99.90;;;;;;5075436;28;20282;-72
2022/11/17 14:09:27;;;;;;;;;;;15.30;99.90;;;;;;5075478;28;20381;-73
2022/11/17 14:11:54;;;;;;;;;;;15.30;99.90;;;;;;5075352;28;19954;-72
2022/11/17 14:14:26;;;;;;;;;;;15.30;99.90;;;;;;5075438;28;19917;-72
2022/11/17 14:16:52;;;;;;;;;;;15.20;99.90;;;;;;5074258;28;19912;-72
2022/11/17 14:19:19;;;;;;;;;;;15.20;99.90;;;;;;5074723;28;19963;-72
2022/11/17 14:21:59;;;;;;;;;;;15.30;99.90;;;;;;5075344;28;20003;-72
2022/11/17 14:24:27;;;;;;;;;;;15.30;99.90;;;;;;5075252;28;19961;-72
2022/11/17 14:26:53;;;;;;;;;;;15.20;99.90;;;;;;5074977;28;20425;-72
2022/11/17 14:29:20;;;;;;;;;;;15.30;99.90;;;;;;5074943;28;19913;-67
2022/11/17 14:31:47;;;;;;;;;;;15.20;99.90;;;;;;5073833;28;19924;-71
2022/11/17 14:34:13;;;;;;;;;;;15.10;99.90;;;;;;5074986;28;19921;-71
2022/11/17 14:36:40;;;;;;;;;;;15.10;99.90;;;;;;5074981;28;19908;-71
2022/11/17 14:39:14;;;;;;;;;;;15.10;99.90;;;;;;5074820;28;19912;-71
2022/11/17 14:41:41;;;;;;;;;;;15.10;99.90;;;;;;5075107;28;19944;-70
2022/11/17 14:44:08;;;;;;;;;;;15.10;99.90;;;;;;5074925;28;19908;-71
2022/11/17 14:46:35;;;;;;;;;;;15.10;99.90;;;;;;5074059;28;19919;-69
2022/11/17 14:49:02;;;;;;;;;;;15.20;99.90;;;;;;5073886;28;19959;-71
2022/11/17 14:51:28;;;;;;;;;;;15.10;99.90;;;;;;5074532;28;19908;-67
2022/11/17 14:53:55;;;;;;;;;;;15.10;99.90;;;;;;5074607;28;19968;-69